sensor_id;sensor_type;location;lat;lon;timestamp;temperature;humidity
67899;DHT22;54699;51.796;10.956;2023-04-01T00:01:03;18.80;57.40
67899;DHT22;54699;51.796;10.956;2023-04-01T00:03:31;18.80;57.40
67899;DHT22;54699;51.796;10.956;2023-04-01T00:05:59;18.80;57.30
67899;DHT22;54699;51.796;10.956;2023-04-01T00:08:26;18.80;58.20
67899;DHT22;54699;51.796;10.956;2023-04-01T00:10:54;18.80;57.30
67899;DHT22;54699;51.796;10.956;2023-04-01T00:13:22;18.80;57.30
67899;DHT22;54699;51.796;10.956;2023-04-01T00:15:52;18.80;57.20
67899;DHT22;54699;51.796;10.956;2023-04-01T00:18:19;18.80;57.30
67899;DHT22;54699;51.796;10.956;2023-04-01T00:20:47;18.80;57.30
67899;DHT22;54699;51.796;10.956;2023-04-01T00:23:15;18.80;57.20
67899;DHT22;54699;51.796;10.956;2023-04-01T00:25:43;18.80;57.30
67899;DHT22;54699;51.796;10.956;2023-04-01T00:28:10;18.80;57.30
67899;DHT22;54699;51.796;10.956;2023-04-01T00:30:37;18.80;57.20
67899;DHT22;54699;51.796;10.956;2023-04-01T00:33:06;18.80;57.20
67899;DHT22;54699;51.796;10.956;2023-04-01T00:35:33;18.80;57.20
67899;DHT22;54699;51.796;10.956;2023-04-01T00:38:00;18.80;57.10
67899;DHT22;54699;51.796;10.956;2023-04-01T00:40:27;18.80;57.20
67899;DHT22;54699;51.796;10.956;2023-04-01T00:42:56;18.80;57.20
67899;DHT22;54699;51.796;10.956;2023-04-01T00:45:25;18.80;57.10
67899;DHT22;54699;51.796;10.956;2023-04-01T00:47:55;18.80;57.10
67899;DHT22;54699;51.796;10.956;2023-04-01T00:50:26;18.70;57.10
67899;DHT22;54699;51.796;10.956;2023-04-01T00:52:56;18.70;57.10
67899;DHT22;54699;51.796;10.956;2023-04-01T00:55:23;18.70;57.10
67899;DHT22;54699;51.796;10.956;2023-04-01T00:57:52;18.70;57.10
67899;DHT22;54699;51.796;10.956;2023-04-01T01:00:22;18.80;57.10
67899;DHT22;54699;51.796;10.956;2023-04-01T01:02:49;18.80;57.10
67899;DHT22;54699;51.796;10.956;2023-04-01T01:05:17;18.80;57.10
67899;DHT22;54699;51.796;10.956;2023-04-01T01:07:53;18.70;56.90
67899;DHT22;54699;51.796;10.956;2023-04-01T01:10:29;18.70;56.90
67899;DHT22;54699;51.796;10.956;2023-04-01T01:13:00;18.80;57.10
67899;DHT22;54699;51.796;10.956;2023-04-01T01:15:36;18.70;57.00
67899;DHT22;54699;51.796;10.956;2023-04-01T01:18:13;18.70;56.90
67899;DHT22;54699;51.796;10.956;2023-04-01T01:23:54;18.70;56.90
67899;DHT22;54699;51.796;10.956;2023-04-01T01:26:38;18.70;56.90
67899;DHT22;54699;51.796;10.956;2023-04-01T01:29:16;18.70;56.90
67899;DHT22;54699;51.796;10.956;2023-04-01T01:32:09;18.70;56.90
67899;DHT22;54699;51.796;10.956;2023-04-01T01:34:46;18.70;56.90
67899;DHT22;54699;51.796;10.956;2023-04-01T01:37:22;18.70;56.80
67899;DHT22;54699;51.796;10.956;2023-04-01T01:39:53;18.70;56.80
67899;DHT22;54699;51.796;10.956;2023-04-01T01:42:23;18.70;56.80
67899;DHT22;54699;51.796;10.956;2023-04-01T01:44:52;18.70;56.90
67899;DHT22;54699;51.796;10.956;2023-04-01T01:47:22;18.70;56.80
67899;DHT22;54699;51.796;10.956;2023-04-01T01:49:50;18.70;56.80
67899;DHT22;54699;51.796;10.956;2023-04-01T01:52:18;18.70;56.80
67899;DHT22;54699;51.796;10.956;2023-04-01T01:54:49;18.70;56.80
67899;DHT22;54699;51.796;10.956;2023-04-01T01:57:19;18.70;56.80
67899;DHT22;54699;51.796;10.956;2023-04-01T01:59:48;18.70;56.80
67899;DHT22;54699;51.796;10.956;2023-04-01T02:02:19;18.70;56.70
67899;DHT22;54699;51.796;10.956;2023-04-01T02:04:47;18.70;56.80
67899;DHT22;54699;51.796;10.956;2023-04-01T02:07:18;18.70;56.70
67899;DHT22;54699;51.796;10.956;2023-04-01T02:09:50;18.70;56.70
67899;DHT22;54699;51.796;10.956;2023-04-01T02:12:17;18.70;56.80
67899;DHT22;54699;51.796;10.956;2023-04-01T02:14:47;18.70;56.70
67899;DHT22;54699;51.796;10.956;2023-04-01T02:17:19;18.70;56.70
67899;DHT22;54699;51.796;10.956;2023-04-01T02:19:48;18.70;56.70
67899;DHT22;54699;51.796;10.956;2023-04-01T02:22:20;18.70;56.60
67899;DHT22;54699;51.796;10.956;2023-04-01T02:24:52;18.70;56.70
67899;DHT22;54699;51.796;10.956;2023-04-01T02:27:24;18.70;56.70
67899;DHT22;54699;51.796;10.956;2023-04-01T02:29:52;18.70;56.70
67899;DHT22;54699;51.796;10.956;2023-04-01T02:32:19;18.70;56.70
67899;DHT22;54699;51.796;10.956;2023-04-01T02:34:47;18.70;56.70
67899;DHT22;54699;51.796;10.956;2023-04-01T02:37:15;18.70;56.70
67899;DHT22;54699;51.796;10.956;2023-04-01T02:39:42;18.70;56.70
67899;DHT22;54699;51.796;10.956;2023-04-01T02:42:11;18.70;56.60
67899;DHT22;54699;51.796;10.956;2023-04-01T02:44:39;18.70;56.50
67899;DHT22;54699;51.796;10.956;2023-04-01T02:47:06;18.70;56.60
67899;DHT22;54699;51.796;10.956;2023-04-01T02:49:33;18.70;56.60
67899;DHT22;54699;51.796;10.956;2023-04-01T02:52:00;18.70;56.50
67899;DHT22;54699;51.796;10.956;2023-04-01T02:54:27;18.70;56.60
67899;DHT22;54699;51.796;10.956;2023-04-01T02:56:54;18.70;56.60
67899;DHT22;54699;51.796;10.956;2023-04-01T02:59:22;18.70;56.60
67899;DHT22;54699;51.796;10.956;2023-04-01T03:01:50;18.70;56.60
67899;DHT22;54699;51.796;10.956;2023-04-01T03:04:17;18.70;56.60
67899;DHT22;54699;51.796;10.956;2023-04-01T03:06:44;18.70;56.60
67899;DHT22;54699;51.796;10.956;2023-04-01T03:09:11;18.70;57.50
67899;DHT22;54699;51.796;10.956;2023-04-01T03:11:38;18.70;56.50
67899;DHT22;54699;51.796;10.956;2023-04-01T03:14:06;18.70;56.50
67899;DHT22;54699;51.796;10.956;2023-04-01T03:16:34;18.70;56.40
67899;DHT22;54699;51.796;10.956;2023-04-01T03:19:01;18.70;56.50
67899;DHT22;54699;51.796;10.956;2023-04-01T03:21:28;18.70;56.50
67899;DHT22;54699;51.796;10.956;2023-04-01T03:23:56;18.60;56.50
67899;DHT22;54699;51.796;10.956;2023-04-01T03:26:24;18.70;56.40
67899;DHT22;54699;51.796;10.956;2023-04-01T03:28:52;18.70;56.50
67899;DHT22;54699;51.796;10.956;2023-04-01T03:31:20;18.70;56.40
67899;DHT22;54699;51.796;10.956;2023-04-01T03:33:50;18.70;56.50
67899;DHT22;54699;51.796;10.956;2023-04-01T03:36:17;18.60;56.40
67899;DHT22;54699;51.796;10.956;2023-04-01T03:38:44;18.60;56.40
67899;DHT22;54699;51.796;10.956;2023-04-01T03:41:12;18.70;56.40
67899;DHT22;54699;51.796;10.956;2023-04-01T03:43:39;18.60;56.40
67899;DHT22;54699;51.796;10.956;2023-04-01T03:46:06;18.60;56.40
67899;DHT22;54699;51.796;10.956;2023-04-01T03:48:37;18.70;56.40
67899;DHT22;54699;51.796;10.956;2023-04-01T03:51:07;18.60;56.40
67899;DHT22;54699;51.796;10.956;2023-04-01T03:53:34;18.60;56.40
67899;DHT22;54699;51.796;10.956;2023-04-01T03:56:03;18.60;56.40
67899;DHT22;54699;51.796;10.956;2023-04-01T03:58:30;18.60;56.40
67899;DHT22;54699;51.796;10.956;2023-04-01T04:00:57;18.60;56.30
67899;DHT22;54699;51.796;10.956;2023-04-01T04:03:24;18.60;56.40
67899;DHT22;54699;51.796;10.956;2023-04-01T04:05:52;18.60;56.40
67899;DHT22;54699;51.796;10.956;2023-04-01T04:08:20;18.60;56.40
67899;DHT22;54699;51.796;10.956;2023-04-01T04:10:51;18.60;56.40
67899;DHT22;54699;51.796;10.956;2023-04-01T04:13:23;18.60;56.40
67899;DHT22;54699;51.796;10.956;2023-04-01T04:15:50;18.60;56.30
67899;DHT22;54699;51.796;10.956;2023-04-01T04:18:17;18.60;56.30
67899;DHT22;54699;51.796;10.956;2023-04-01T04:20:44;18.60;56.30
67899;DHT22;54699;51.796;10.956;2023-04-01T04:23:13;18.60;56.20
67899;DHT22;54699;51.796;10.956;2023-04-01T04:25:42;18.60;56.20
67899;DHT22;54699;51.796;10.956;2023-04-01T04:28:20;18.60;56.30
67899;DHT22;54699;51.796;10.956;2023-04-01T04:30:47;18.60;56.30
67899;DHT22;54699;51.796;10.956;2023-04-01T04:33:14;18.60;56.20
67899;DHT22;54699;51.796;10.956;2023-04-01T04:35:40;18.60;56.20
67899;DHT22;54699;51.796;10.956;2023-04-01T04:38:07;18.60;56.20
67899;DHT22;54699;51.796;10.956;2023-04-01T04:40:35;18.60;56.20
67899;DHT22;54699;51.796;10.956;2023-04-01T04:43:04;18.60;56.20
67899;DHT22;54699;51.796;10.956;2023-04-01T04:45:31;18.60;56.20
67899;DHT22;54699;51.796;10.956;2023-04-01T04:47:58;18.60;56.10
67899;DHT22;54699;51.796;10.956;2023-04-01T04:50:25;18.60;56.20
67899;DHT22;54699;51.796;10.956;2023-04-01T04:52:52;18.60;56.20
67899;DHT22;54699;51.796;10.956;2023-04-01T04:55:19;18.60;56.10
67899;DHT22;54699;51.796;10.956;2023-04-01T04:57:47;18.60;56.10
67899;DHT22;54699;51.796;10.956;2023-04-01T05:00:15;18.60;56.10
67899;DHT22;54699;51.796;10.956;2023-04-01T05:02:42;18.60;56.10
67899;DHT22;54699;51.796;10.956;2023-04-01T05:05:09;18.60;56.10
67899;DHT22;54699;51.796;10.956;2023-04-01T05:07:36;18.60;56.10
67899;DHT22;54699;51.796;10.956;2023-04-01T05:10:04;18.60;56.10
67899;DHT22;54699;51.796;10.956;2023-04-01T05:12:31;18.60;56.10
67899;DHT22;54699;51.796;10.956;2023-04-01T05:15:01;18.60;56.10
67899;DHT22;54699;51.796;10.956;2023-04-01T05:17:30;18.60;56.10
67899;DHT22;54699;51.796;10.956;2023-04-01T05:19:56;18.60;56.10
67899;DHT22;54699;51.796;10.956;2023-04-01T05:22:23;18.60;56.10
67899;DHT22;54699;51.796;10.956;2023-04-01T05:24:50;18.60;56.10
67899;DHT22;54699;51.796;10.956;2023-04-01T05:27:17;18.60;56.10
67899;DHT22;54699;51.796;10.956;2023-04-01T05:29:44;18.60;56.00
67899;DHT22;54699;51.796;10.956;2023-04-01T05:32:11;18.60;56.10
67899;DHT22;54699;51.796;10.956;2023-04-01T05:34:39;18.60;56.10
67899;DHT22;54699;51.796;10.956;2023-04-01T05:37:05;18.60;56.10
67899;DHT22;54699;51.796;10.956;2023-04-01T05:39:35;18.60;56.10
67899;DHT22;54699;51.796;10.956;2023-04-01T05:42:02;18.60;56.00
67899;DHT22;54699;51.796;10.956;2023-04-01T05:44:31;18.60;56.00
67899;DHT22;54699;51.796;10.956;2023-04-01T05:46:58;18.60;56.90
67899;DHT22;54699;51.796;10.956;2023-04-01T05:49:24;18.60;56.10
67899;DHT22;54699;51.796;10.956;2023-04-01T05:51:53;18.60;56.10
67899;DHT22;54699;51.796;10.956;2023-04-01T05:54:20;18.60;56.00
67899;DHT22;54699;51.796;10.956;2023-04-01T05:56:47;18.60;56.00
67899;DHT22;54699;51.796;10.956;2023-04-01T05:59:14;18.60;56.10
67899;DHT22;54699;51.796;10.956;2023-04-01T06:01:41;18.60;56.00
67899;DHT22;54699;51.796;10.956;2023-04-01T06:04:09;18.60;56.00
67899;DHT22;54699;51.796;10.956;2023-04-01T06:06:40;18.60;56.00
67899;DHT22;54699;51.796;10.956;2023-04-01T06:09:12;18.60;56.00
67899;DHT22;54699;51.796;10.956;2023-04-01T06:11:45;18.60;56.00
67899;DHT22;54699;51.796;10.956;2023-04-01T06:14:28;18.60;56.10
67899;DHT22;54699;51.796;10.956;2023-04-01T06:17:07;18.60;56.10
67899;DHT22;54699;51.796;10.956;2023-04-01T06:19:50;18.60;56.10
67899;DHT22;54699;51.796;10.956;2023-04-01T06:22:39;18.60;56.00
67899;DHT22;54699;51.796;10.956;2023-04-01T06:25:20;18.60;56.00
67899;DHT22;54699;51.796;10.956;2023-04-01T06:28:01;18.60;56.00
67899;DHT22;54699;51.796;10.956;2023-04-01T06:30:43;18.60;56.10
67899;DHT22;54699;51.796;10.956;2023-04-01T06:33:17;18.60;56.00
67899;DHT22;54699;51.796;10.956;2023-04-01T06:39:05;18.60;56.10
67899;DHT22;54699;51.796;10.956;2023-04-01T06:41:56;18.60;56.00
67899;DHT22;54699;51.796;10.956;2023-04-01T06:44:45;18.60;56.00
67899;DHT22;54699;51.796;10.956;2023-04-01T06:47:23;18.60;56.10
67899;DHT22;54699;51.796;10.956;2023-04-01T06:50:04;18.60;56.10
67899;DHT22;54699;51.796;10.956;2023-04-01T06:52:41;18.60;56.10
67899;DHT22;54699;51.796;10.956;2023-04-01T06:55:18;18.60;56.00
67899;DHT22;54699;51.796;10.956;2023-04-01T06:57:54;18.60;56.20
67899;DHT22;54699;51.796;10.956;2023-04-01T07:00:27;18.60;56.10
67899;DHT22;54699;51.796;10.956;2023-04-01T07:02:59;18.60;56.20
67899;DHT22;54699;51.796;10.956;2023-04-01T07:05:33;18.60;56.20
67899;DHT22;54699;51.796;10.956;2023-04-01T07:08:02;18.60;56.30
67899;DHT22;54699;51.796;10.956;2023-04-01T07:10:35;18.60;56.40
67899;DHT22;54699;51.796;10.956;2023-04-01T07:13:13;18.60;56.30
67899;DHT22;54699;51.796;10.956;2023-04-01T07:15:43;18.60;56.40
67899;DHT22;54699;51.796;10.956;2023-04-01T07:18:16;18.60;56.40
67899;DHT22;54699;51.796;10.956;2023-04-01T07:20:48;18.60;56.40
67899;DHT22;54699;51.796;10.956;2023-04-01T07:23:20;18.60;56.40
67899;DHT22;54699;51.796;10.956;2023-04-01T07:25:51;18.60;56.50
67899;DHT22;54699;51.796;10.956;2023-04-01T07:28:23;18.60;56.70
67899;DHT22;54699;51.796;10.956;2023-04-01T07:30:52;18.60;56.60
67899;DHT22;54699;51.796;10.956;2023-04-01T07:33:30;18.60;56.60
67899;DHT22;54699;51.796;10.956;2023-04-01T07:36:05;18.60;56.50
67899;DHT22;54699;51.796;10.956;2023-04-01T07:38:39;18.60;56.70
67899;DHT22;54699;51.796;10.956;2023-04-01T07:41:17;18.60;56.90
67899;DHT22;54699;51.796;10.956;2023-04-01T07:43:55;18.60;56.80
67899;DHT22;54699;51.796;10.956;2023-04-01T07:46:36;18.60;56.80
67899;DHT22;54699;51.796;10.956;2023-04-01T07:49:20;18.60;57.00
67899;DHT22;54699;51.796;10.956;2023-04-01T07:51:53;18.60;57.00
67899;DHT22;54699;51.796;10.956;2023-04-01T07:54:28;18.70;57.80
67899;DHT22;54699;51.796;10.956;2023-04-01T07:57:02;18.70;57.10
67899;DHT22;54699;51.796;10.956;2023-04-01T07:59:35;18.70;57.10
67899;DHT22;54699;51.796;10.956;2023-04-01T08:02:15;18.70;57.10
67899;DHT22;54699;51.796;10.956;2023-04-01T08:04:53;18.70;57.20
67899;DHT22;54699;51.796;10.956;2023-04-01T08:07:28;18.70;57.30
67899;DHT22;54699;51.796;10.956;2023-04-01T08:10:04;18.70;57.50
67899;DHT22;54699;51.796;10.956;2023-04-01T08:12:41;18.70;57.30
67899;DHT22;54699;51.796;10.956;2023-04-01T08:15:18;18.70;57.50
67899;DHT22;54699;51.796;10.956;2023-04-01T08:18:04;18.70;57.40
67899;DHT22;54699;51.796;10.956;2023-04-01T08:20:41;18.70;57.40
67899;DHT22;54699;51.796;10.956;2023-04-01T08:23:15;18.70;57.40
67899;DHT22;54699;51.796;10.956;2023-04-01T08:25:48;18.80;57.50
67899;DHT22;54699;51.796;10.956;2023-04-01T08:28:21;18.80;57.50
67899;DHT22;54699;51.796;10.956;2023-04-01T08:30:53;18.80;57.40
67899;DHT22;54699;51.796;10.956;2023-04-01T08:33:25;18.80;57.40
67899;DHT22;54699;51.796;10.956;2023-04-01T08:35:56;18.80;57.50
67899;DHT22;54699;51.796;10.956;2023-04-01T08:38:29;18.80;57.60
67899;DHT22;54699;51.796;10.956;2023-04-01T08:41:00;18.80;57.70
67899;DHT22;54699;51.796;10.956;2023-04-01T08:49:48;18.80;57.70
67899;DHT22;54699;51.796;10.956;2023-04-01T08:52:35;18.80;59.00
67899;DHT22;54699;51.796;10.956;2023-04-01T08:55:10;18.80;58.00
67899;DHT22;54699;51.796;10.956;2023-04-01T08:57:53;18.80;58.20
67899;DHT22;54699;51.796;10.956;2023-04-01T09:00:31;18.80;58.40
67899;DHT22;54699;51.796;10.956;2023-04-01T09:03:10;18.90;58.80
67899;DHT22;54699;51.796;10.956;2023-04-01T09:06:01;18.90;58.90
67899;DHT22;54699;51.796;10.956;2023-04-01T09:08:46;18.90;59.40
67899;DHT22;54699;51.796;10.956;2023-04-01T09:11:28;18.90;59.00
67899;DHT22;54699;51.796;10.956;2023-04-01T09:14:09;18.90;58.70
67899;DHT22;54699;51.796;10.956;2023-04-01T09:17:01;18.90;59.10
67899;DHT22;54699;51.796;10.956;2023-04-01T09:19:48;18.90;59.40
67899;DHT22;54699;51.796;10.956;2023-04-01T09:22:39;18.90;59.30
67899;DHT22;54699;51.796;10.956;2023-04-01T09:25:22;18.90;59.10
67899;DHT22;54699;51.796;10.956;2023-04-01T09:27:57;18.90;59.20
67899;DHT22;54699;51.796;10.956;2023-04-01T09:30:41;18.90;59.20
67899;DHT22;54699;51.796;10.956;2023-04-01T09:33:33;18.90;59.80
67899;DHT22;54699;51.796;10.956;2023-04-01T09:36:23;18.90;58.80
67899;DHT22;54699;51.796;10.956;2023-04-01T09:39:10;18.90;58.60
67899;DHT22;54699;51.796;10.956;2023-04-01T09:42:04;18.90;58.80
67899;DHT22;54699;51.796;10.956;2023-04-01T09:44:40;18.90;58.70
67899;DHT22;54699;51.796;10.956;2023-04-01T09:47:22;18.90;58.20
67899;DHT22;54699;51.796;10.956;2023-04-01T09:50:12;19.00;58.50
67899;DHT22;54699;51.796;10.956;2023-04-01T09:52:59;19.00;57.90
67899;DHT22;54699;51.796;10.956;2023-04-01T10:04:56;19.00;56.90
67899;DHT22;54699;51.796;10.956;2023-04-01T10:10:55;19.00;53.50
67899;DHT22;54699;51.796;10.956;2023-04-01T10:16:52;19.10;52.80
67899;DHT22;54699;51.796;10.956;2023-04-01T10:20:01;19.10;52.20
67899;DHT22;54699;51.796;10.956;2023-04-01T10:22:56;19.10;51.80
67899;DHT22;54699;51.796;10.956;2023-04-01T10:28:53;19.10;53.30
67899;DHT22;54699;51.796;10.956;2023-04-01T10:31:35;19.10;53.20
67899;DHT22;54699;51.796;10.956;2023-04-01T10:37:15;19.20;53.00
67899;DHT22;54699;51.796;10.956;2023-04-01T10:40:03;19.20;53.40
67899;DHT22;54699;51.796;10.956;2023-04-01T10:43:00;19.20;53.30
67899;DHT22;54699;51.796;10.956;2023-04-01T10:52:01;19.20;52.30
67899;DHT22;54699;51.796;10.956;2023-04-01T10:55:08;19.20;52.30
67899;DHT22;54699;51.796;10.956;2023-04-01T10:57:55;19.20;52.60
67899;DHT22;54699;51.796;10.956;2023-04-01T11:00:41;19.30;52.90
67899;DHT22;54699;51.796;10.956;2023-04-01T11:12:58;19.30;52.10
67899;DHT22;54699;51.796;10.956;2023-04-01T11:16:06;19.30;53.00
67899;DHT22;54699;51.796;10.956;2023-04-01T11:18:54;19.30;52.60
67899;DHT22;54699;51.796;10.956;2023-04-01T11:21:46;19.30;52.40
67899;DHT22;54699;51.796;10.956;2023-04-01T11:24:38;19.30;52.50
67899;DHT22;54699;51.796;10.956;2023-04-01T11:27:21;19.30;52.00
67899;DHT22;54699;51.796;10.956;2023-04-01T11:30:13;19.30;52.20
67899;DHT22;54699;51.796;10.956;2023-04-01T11:32:46;19.30;51.70
67899;DHT22;54699;51.796;10.956;2023-04-01T11:35:25;19.30;51.50
67899;DHT22;54699;51.796;10.956;2023-04-01T11:38:14;19.30;52.20
67899;DHT22;54699;51.796;10.956;2023-04-01T11:40:51;19.30;52.00
67899;DHT22;54699;51.796;10.956;2023-04-01T11:43:27;19.30;52.30
67899;DHT22;54699;51.796;10.956;2023-04-01T11:46:04;19.30;52.30
67899;DHT22;54699;51.796;10.956;2023-04-01T11:48:38;19.30;52.30
67899;DHT22;54699;51.796;10.956;2023-04-01T11:51:24;19.30;52.10
67899;DHT22;54699;51.796;10.956;2023-04-01T11:54:06;19.30;52.50
67899;DHT22;54699;51.796;10.956;2023-04-01T11:56:53;19.30;52.30
67899;DHT22;54699;51.796;10.956;2023-04-01T11:59:34;19.30;51.60
67899;DHT22;54699;51.796;10.956;2023-04-01T12:02:14;19.30;51.70
67899;DHT22;54699;51.796;10.956;2023-04-01T12:07:55;19.30;52.00
67899;DHT22;54699;51.796;10.956;2023-04-01T12:10:33;19.30;51.60
67899;DHT22;54699;51.796;10.956;2023-04-01T12:13:09;19.30;51.70
67899;DHT22;54699;51.796;10.956;2023-04-01T12:15:52;19.30;51.00
67899;DHT22;54699;51.796;10.956;2023-04-01T12:18:33;19.30;50.60
67899;DHT22;54699;51.796;10.956;2023-04-01T12:21:11;19.30;51.10
67899;DHT22;54699;51.796;10.956;2023-04-01T12:23:51;19.30;51.80
67899;DHT22;54699;51.796;10.956;2023-04-01T12:26:43;19.30;51.50
67899;DHT22;54699;51.796;10.956;2023-04-01T12:29:33;19.30;51.40
67899;DHT22;54699;51.796;10.956;2023-04-01T12:32:15;19.30;51.60
67899;DHT22;54699;51.796;10.956;2023-04-01T12:34:56;19.30;52.10
67899;DHT22;54699;51.796;10.956;2023-04-01T12:37:34;19.30;51.50
67899;DHT22;54699;51.796;10.956;2023-04-01T12:42:59;19.30;50.70
67899;DHT22;54699;51.796;10.956;2023-04-01T12:45:37;19.30;52.00
67899;DHT22;54699;51.796;10.956;2023-04-01T12:48:18;19.40;51.20
67899;DHT22;54699;51.796;10.956;2023-04-01T12:51:26;19.30;50.70
67899;DHT22;54699;51.796;10.956;2023-04-01T12:54:08;19.30;51.00
67899;DHT22;54699;51.796;10.956;2023-04-01T12:56:58;19.40;50.80
67899;DHT22;54699;51.796;10.956;2023-04-01T12:59:43;19.40;51.90
67899;DHT22;54699;51.796;10.956;2023-04-01T13:02:24;19.40;51.10
67899;DHT22;54699;51.796;10.956;2023-04-01T13:05:20;19.40;51.40
67899;DHT22;54699;51.796;10.956;2023-04-01T13:08:12;19.40;52.10
67899;DHT22;54699;51.796;10.956;2023-04-01T13:10:53;19.40;52.40
67899;DHT22;54699;51.796;10.956;2023-04-01T13:13:33;19.40;52.30
67899;DHT22;54699;51.796;10.956;2023-04-01T13:16:14;19.40;51.60
67899;DHT22;54699;51.796;10.956;2023-04-01T13:18:49;19.40;51.50
67899;DHT22;54699;51.796;10.956;2023-04-01T13:21:26;19.40;51.00
67899;DHT22;54699;51.796;10.956;2023-04-01T13:24:03;19.40;52.30
67899;DHT22;54699;51.796;10.956;2023-04-01T13:26:41;19.40;51.20
67899;DHT22;54699;51.796;10.956;2023-04-01T13:29:20;19.40;52.10
67899;DHT22;54699;51.796;10.956;2023-04-01T13:31:52;19.30;52.30
67899;DHT22;54699;51.796;10.956;2023-04-01T13:34:37;19.40;51.90
67899;DHT22;54699;51.796;10.956;2023-04-01T13:37:15;19.40;50.60
67899;DHT22;54699;51.796;10.956;2023-04-01T13:39:55;19.40;50.70
67899;DHT22;54699;51.796;10.956;2023-04-01T13:42:29;19.40;53.60
67899;DHT22;54699;51.796;10.956;2023-04-01T13:45:08;19.40;51.40
67899;DHT22;54699;51.796;10.956;2023-04-01T13:50:57;19.40;51.20
67899;DHT22;54699;51.796;10.956;2023-04-01T13:56:49;19.40;52.80
67899;DHT22;54699;51.796;10.956;2023-04-01T13:59:40;19.40;53.10
67899;DHT22;54699;51.796;10.956;2023-04-01T14:02:38;19.40;53.70
67899;DHT22;54699;51.796;10.956;2023-04-01T14:05:29;19.40;54.10
67899;DHT22;54699;51.796;10.956;2023-04-01T14:08:13;19.40;53.70
67899;DHT22;54699;51.796;10.956;2023-04-01T14:10:54;19.40;52.50
67899;DHT22;54699;51.796;10.956;2023-04-01T14:13:34;19.40;54.50
67899;DHT22;54699;51.796;10.956;2023-04-01T14:16:14;19.40;53.40
67899;DHT22;54699;51.796;10.956;2023-04-01T14:19:03;19.40;54.40
67899;DHT22;54699;51.796;10.956;2023-04-01T14:21:43;19.40;55.30
67899;DHT22;54699;51.796;10.956;2023-04-01T14:24:27;19.30;54.70
67899;DHT22;54699;51.796;10.956;2023-04-01T14:30:02;19.30;56.00
67899;DHT22;54699;51.796;10.956;2023-04-01T14:32:41;19.30;56.20
67899;DHT22;54699;51.796;10.956;2023-04-01T14:35:20;19.40;55.10
67899;DHT22;54699;51.796;10.956;2023-04-01T14:37:58;19.30;56.50
67899;DHT22;54699;51.796;10.956;2023-04-01T14:40:46;19.30;55.90
67899;DHT22;54699;51.796;10.956;2023-04-01T14:43:25;19.40;56.40
67899;DHT22;54699;51.796;10.956;2023-04-01T14:46:08;19.30;56.70
67899;DHT22;54699;51.796;10.956;2023-04-01T14:48:50;19.30;57.30
67899;DHT22;54699;51.796;10.956;2023-04-01T14:51:21;19.30;57.40
67899;DHT22;54699;51.796;10.956;2023-04-01T14:53:58;19.30;57.40
67899;DHT22;54699;51.796;10.956;2023-04-01T14:56:35;19.30;57.20
67899;DHT22;54699;51.796;10.956;2023-04-01T14:59:07;19.30;57.40
67899;DHT22;54699;51.796;10.956;2023-04-01T15:01:40;19.30;57.10
67899;DHT22;54699;51.796;10.956;2023-04-01T15:04:18;19.30;57.20
67899;DHT22;54699;51.796;10.956;2023-04-01T15:07:17;19.30;56.70
67899;DHT22;54699;51.796;10.956;2023-04-01T15:10:06;19.30;57.50
67899;DHT22;54699;51.796;10.956;2023-04-01T15:12:48;19.30;57.40
67899;DHT22;54699;51.796;10.956;2023-04-01T15:15:23;19.30;57.90
67899;DHT22;54699;51.796;10.956;2023-04-01T15:18:07;19.30;58.10
67899;DHT22;54699;51.796;10.956;2023-04-01T15:20:40;19.30;59.10
67899;DHT22;54699;51.796;10.956;2023-04-01T15:23:21;19.30;59.20
67899;DHT22;54699;51.796;10.956;2023-04-01T15:26:16;19.30;58.90
67899;DHT22;54699;51.796;10.956;2023-04-01T15:28:54;19.30;59.00
67899;DHT22;54699;51.796;10.956;2023-04-01T15:31:29;19.30;58.90
67899;DHT22;54699;51.796;10.956;2023-04-01T15:34:15;19.30;58.70
67899;DHT22;54699;51.796;10.956;2023-04-01T15:36:53;19.30;58.80
67899;DHT22;54699;51.796;10.956;2023-04-01T15:39:30;19.30;58.60
67899;DHT22;54699;51.796;10.956;2023-04-01T15:45:05;19.30;58.50
67899;DHT22;54699;51.796;10.956;2023-04-01T15:47:42;19.30;58.60
67899;DHT22;54699;51.796;10.956;2023-04-01T15:50:24;19.30;58.50
67899;DHT22;54699;51.796;10.956;2023-04-01T15:53:04;19.30;58.40
67899;DHT22;54699;51.796;10.956;2023-04-01T15:55:41;19.30;58.60
67899;DHT22;54699;51.796;10.956;2023-04-01T15:58:22;19.30;58.50
67899;DHT22;54699;51.796;10.956;2023-04-01T16:01:03;19.30;58.50
67899;DHT22;54699;51.796;10.956;2023-04-01T16:03:42;19.30;58.60
67899;DHT22;54699;51.796;10.956;2023-04-01T16:06:26;19.30;58.50
67899;DHT22;54699;51.796;10.956;2023-04-01T16:09:15;19.30;58.60
67899;DHT22;54699;51.796;10.956;2023-04-01T16:11:56;19.30;58.70
67899;DHT22;54699;51.796;10.956;2023-04-01T16:14:33;19.30;58.80
67899;DHT22;54699;51.796;10.956;2023-04-01T16:17:18;19.30;59.00
67899;DHT22;54699;51.796;10.956;2023-04-01T16:19:58;19.30;58.80
67899;DHT22;54699;51.796;10.956;2023-04-01T16:22:31;19.30;59.00
67899;DHT22;54699;51.796;10.956;2023-04-01T16:25:13;19.30;58.80
67899;DHT22;54699;51.796;10.956;2023-04-01T16:27:47;19.20;58.90
67899;DHT22;54699;51.796;10.956;2023-04-01T16:30:24;19.30;59.10
67899;DHT22;54699;51.796;10.956;2023-04-01T16:33:00;19.30;59.10
67899;DHT22;54699;51.796;10.956;2023-04-01T16:35:34;19.30;59.00
67899;DHT22;54699;51.796;10.956;2023-04-01T16:38:11;19.30;59.10
67899;DHT22;54699;51.796;10.956;2023-04-01T16:40:46;19.20;58.90
67899;DHT22;54699;51.796;10.956;2023-04-01T16:43:21;19.20;58.90
67899;DHT22;54699;51.796;10.956;2023-04-01T16:45:57;19.20;59.00
67899;DHT22;54699;51.796;10.956;2023-04-01T16:48:54;19.20;59.00
67899;DHT22;54699;51.796;10.956;2023-04-01T16:51:32;19.30;59.00
67899;DHT22;54699;51.796;10.956;2023-04-01T16:54:05;19.20;58.90
67899;DHT22;54699;51.796;10.956;2023-04-01T16:56:42;19.20;59.00
67899;DHT22;54699;51.796;10.956;2023-04-01T16:59:14;19.20;58.90
67899;DHT22;54699;51.796;10.956;2023-04-01T17:01:48;19.20;58.80
67899;DHT22;54699;51.796;10.956;2023-04-01T17:04:20;19.20;58.80
67899;DHT22;54699;51.796;10.956;2023-04-01T17:06:59;19.20;58.90
67899;DHT22;54699;51.796;10.956;2023-04-01T17:09:38;19.20;58.90
67899;DHT22;54699;51.796;10.956;2023-04-01T17:12:19;19.20;58.90
67899;DHT22;54699;51.796;10.956;2023-04-01T17:14:55;19.20;58.80
67899;DHT22;54699;51.796;10.956;2023-04-01T17:17:35;19.20;58.80